sensor_id;sensor_type;location;lat;lon;timestamp;P1;durP1;ratioP1;P2;durP2;ratioP2
33022;SDS011;19390;51.460;5.710;2023-10-13T00:00:10;35.47;;;22.13;;
33022;SDS011;19390;51.460;5.710;2023-10-13T00:02:50;32.65;;;21.27;;
33022;SDS011;19390;51.460;5.710;2023-10-13T00:05:17;36.63;;;20.83;;
33022;SDS011;19390;51.460;5.710;2023-10-13T00:07:44;36.45;;;21.05;;
33022;SDS011;19390;51.460;5.710;2023-10-13T00:10:10;29.30;;;20.30;;
33022;SDS011;19390;51.460;5.710;2023-10-13T00:12:36;35.78;;;21.67;;
33022;SDS011;19390;51.460;5.710;2023-10-13T00:15:03;30.92;;;19.80;;
33022;SDS011;19390;51.460;5.710;2023-10-13T00:17:32;34.13;;;20.20;;
33022;SDS011;19390;51.460;5.710;2023-10-13T00:19:57;34.70;;;21.30;;
33022;SDS011;19390;51.460;5.710;2023-10-13T00:22:25;32.38;;;19.35;;
33022;SDS011;19390;51.460;5.710;2023-10-13T00:24:56;37.78;;;19.75;;
33022;SDS011;19390;51.460;5.710;2023-10-13T00:27:28;29.33;;;20.70;;
33022;SDS011;19390;51.460;5.710;2023-10-13T00:30:05;31.02;;;18.85;;
33022;SDS011;19390;51.460;5.710;2023-10-13T00:32:51;36.38;;;20.73;;
33022;SDS011;19390;51.460;5.710;2023-10-13T00:35:30;30.15;;;19.55;;
33022;SDS011;19390;51.460;5.710;2023-10-13T00:38:03;32.97;;;20.38;;
33022;SDS011;19390;51.460;5.710;2023-10-13T00:40:37;32.40;;;19.40;;
33022;SDS011;19390;51.460;5.710;2023-10-13T00:43:04;32.28;;;20.35;;
33022;SDS011;19390;51.460;5.710;2023-10-13T00:45:45;31.80;;;19.90;;
33022;SDS011;19390;51.460;5.710;2023-10-13T00:48:37;29.73;;;20.77;;
33022;SDS011;19390;51.460;5.710;2023-10-13T00:51:09;33.15;;;19.92;;
33022;SDS011;19390;51.460;5.710;2023-10-13T00:53:55;31.27;;;19.38;;
33022;SDS011;19390;51.460;5.710;2023-10-13T00:56:21;27.63;;;17.50;;
33022;SDS011;19390;51.460;5.710;2023-10-13T00:58:52;30.80;;;18.98;;
33022;SDS011;19390;51.460;5.710;2023-10-13T01:01:23;29.23;;;17.45;;
33022;SDS011;19390;51.460;5.710;2023-10-13T01:03:57;26.55;;;16.92;;
33022;SDS011;19390;51.460;5.710;2023-10-13T01:06:28;28.83;;;16.85;;
33022;SDS011;19390;51.460;5.710;2023-10-13T01:08:58;28.42;;;16.50;;
33022;SDS011;19390;51.460;5.710;2023-10-13T01:11:45;30.83;;;14.90;;
33022;SDS011;19390;51.460;5.710;2023-10-13T01:16:49;29.92;;;16.55;;
33022;SDS011;19390;51.460;5.710;2023-10-13T01:19:18;24.48;;;16.67;;
33022;SDS011;19390;51.460;5.710;2023-10-13T01:21:50;29.95;;;17.92;;
33022;SDS011;19390;51.460;5.710;2023-10-13T01:24:22;26.63;;;16.90;;
33022;SDS011;19390;51.460;5.710;2023-10-13T01:26:49;28.50;;;16.80;;
33022;SDS011;19390;51.460;5.710;2023-10-13T01:29:17;32.38;;;18.77;;
33022;SDS011;19390;51.460;5.710;2023-10-13T01:31:44;27.58;;;18.38;;
33022;SDS011;19390;51.460;5.710;2023-10-13T01:34:15;26.58;;;18.33;;
33022;SDS011;19390;51.460;5.710;2023-10-13T01:36:47;29.27;;;19.83;;
33022;SDS011;19390;51.460;5.710;2023-10-13T01:39:16;37.63;;;19.42;;
33022;SDS011;19390;51.460;5.710;2023-10-13T01:41:42;31.98;;;19.52;;
33022;SDS011;19390;51.460;5.710;2023-10-13T01:44:09;28.00;;;19.77;;
33022;SDS011;19390;51.460;5.710;2023-10-13T01:46:39;33.92;;;20.30;;
33022;SDS011;19390;51.460;5.710;2023-10-13T01:49:07;36.47;;;22.00;;
33022;SDS011;19390;51.460;5.710;2023-10-13T01:51:33;36.58;;;21.50;;
33022;SDS011;19390;51.460;5.710;2023-10-13T01:53:59;36.70;;;22.63;;
33022;SDS011;19390;51.460;5.710;2023-10-13T01:56:28;37.45;;;23.73;;
33022;SDS011;19390;51.460;5.710;2023-10-13T01:58:56;34.97;;;23.48;;
33022;SDS011;19390;51.460;5.710;2023-10-13T02:01:21;33.25;;;22.38;;
33022;SDS011;19390;51.460;5.710;2023-10-13T02:03:57;35.15;;;22.55;;
33022;SDS011;19390;51.460;5.710;2023-10-13T02:06:33;38.33;;;23.52;;
33022;SDS011;19390;51.460;5.710;2023-10-13T02:09:08;39.40;;;23.05;;
33022;SDS011;19390;51.460;5.710;2023-10-13T02:11:50;43.45;;;22.80;;
33022;SDS011;19390;51.460;5.710;2023-10-13T02:14:19;40.95;;;25.00;;
33022;SDS011;19390;51.460;5.710;2023-10-13T02:16:47;34.30;;;22.63;;
33022;SDS011;19390;51.460;5.710;2023-10-13T02:19:15;40.72;;;25.42;;
33022;SDS011;19390;51.460;5.710;2023-10-13T02:21:44;39.75;;;24.92;;
33022;SDS011;19390;51.460;5.710;2023-10-13T02:24:10;44.33;;;27.15;;
33022;SDS011;19390;51.460;5.710;2023-10-13T02:26:43;44.63;;;25.40;;
33022;SDS011;19390;51.460;5.710;2023-10-13T02:29:09;40.75;;;25.13;;
33022;SDS011;19390;51.460;5.710;2023-10-13T02:31:39;45.78;;;25.52;;
33022;SDS011;19390;51.460;5.710;2023-10-13T02:34:06;41.75;;;24.85;;
33022;SDS011;19390;51.460;5.710;2023-10-13T02:36:36;39.20;;;23.42;;
33022;SDS011;19390;51.460;5.710;2023-10-13T02:39:12;42.90;;;26.02;;
33022;SDS011;19390;51.460;5.710;2023-10-13T02:41:39;42.17;;;26.88;;
33022;SDS011;19390;51.460;5.710;2023-10-13T02:44:06;42.17;;;24.30;;
33022;SDS011;19390;51.460;5.710;2023-10-13T02:46:34;38.78;;;24.80;;
33022;SDS011;19390;51.460;5.710;2023-10-13T02:49:04;34.20;;;23.75;;
33022;SDS011;19390;51.460;5.710;2023-10-13T02:51:37;40.30;;;23.75;;
33022;SDS011;19390;51.460;5.710;2023-10-13T02:54:05;44.70;;;25.33;;
33022;SDS011;19390;51.460;5.710;2023-10-13T02:56:35;39.67;;;23.75;;
33022;SDS011;19390;51.460;5.710;2023-10-13T02:59:01;48.17;;;25.17;;
33022;SDS011;19390;51.460;5.710;2023-10-13T03:01:34;43.92;;;25.05;;
33022;SDS011;19390;51.460;5.710;2023-10-13T03:04:03;36.75;;;23.35;;
33022;SDS011;19390;51.460;5.710;2023-10-13T03:06:33;39.33;;;25.23;;
33022;SDS011;19390;51.460;5.710;2023-10-13T03:09:00;41.40;;;25.15;;
33022;SDS011;19390;51.460;5.710;2023-10-13T03:11:40;36.88;;;23.48;;
33022;SDS011;19390;51.460;5.710;2023-10-13T03:14:13;42.70;;;25.02;;
33022;SDS011;19390;51.460;5.710;2023-10-13T03:16:55;43.03;;;26.23;;
33022;SDS011;19390;51.460;5.710;2023-10-13T03:19:31;42.90;;;24.52;;
33022;SDS011;19390;51.460;5.710;2023-10-13T03:22:02;36.03;;;23.10;;
33022;SDS011;19390;51.460;5.710;2023-10-13T03:24:34;47.13;;;25.40;;
33022;SDS011;19390;51.460;5.710;2023-10-13T03:27:18;41.75;;;23.38;;
33022;SDS011;19390;51.460;5.710;2023-10-13T03:29:48;41.97;;;23.45;;
33022;SDS011;19390;51.460;5.710;2023-10-13T03:32:21;42.63;;;25.25;;
33022;SDS011;19390;51.460;5.710;2023-10-13T03:34:47;37.72;;;22.35;;
33022;SDS011;19390;51.460;5.710;2023-10-13T03:37:19;47.05;;;26.67;;
33022;SDS011;19390;51.460;5.710;2023-10-13T03:40:12;46.97;;;25.73;;
33022;SDS011;19390;51.460;5.710;2023-10-13T03:45:26;39.95;;;24.80;;
33022;SDS011;19390;51.460;5.710;2023-10-13T03:47:53;37.63;;;22.35;;
33022;SDS011;19390;51.460;5.710;2023-10-13T03:50:19;35.72;;;22.02;;
33022;SDS011;19390;51.460;5.710;2023-10-13T03:52:59;46.40;;;25.55;;
33022;SDS011;19390;51.460;5.710;2023-10-13T03:55:25;37.22;;;21.80;;
33022;SDS011;19390;51.460;5.710;2023-10-13T03:57:54;39.33;;;24.73;;
33022;SDS011;19390;51.460;5.710;2023-10-13T04:00:22;41.45;;;22.50;;
33022;SDS011;19390;51.460;5.710;2023-10-13T04:02:52;35.30;;;23.30;;
33022;SDS011;19390;51.460;5.710;2023-10-13T04:05:27;34.20;;;20.67;;
33022;SDS011;19390;51.460;5.710;2023-10-13T04:08:04;35.10;;;23.85;;
33022;SDS011;19390;51.460;5.710;2023-10-13T04:10:48;37.00;;;22.60;;
33022;SDS011;19390;51.460;5.710;2023-10-13T04:13:17;43.58;;;24.25;;
33022;SDS011;19390;51.460;5.710;2023-10-13T04:16:02;40.25;;;22.35;;
33022;SDS011;19390;51.460;5.710;2023-10-13T04:18:47;39.15;;;22.35;;
33022;SDS011;19390;51.460;5.710;2023-10-13T04:21:19;36.78;;;23.60;;
33022;SDS011;19390;51.460;5.710;2023-10-13T04:24:15;36.40;;;21.75;;
33022;SDS011;19390;51.460;5.710;2023-10-13T04:26:50;35.40;;;20.83;;
33022;SDS011;19390;51.460;5.710;2023-10-13T04:29:35;35.60;;;20.42;;
33022;SDS011;19390;51.460;5.710;2023-10-13T04:32:20;33.90;;;20.33;;
33022;SDS011;19390;51.460;5.710;2023-10-13T04:34:57;38.03;;;19.15;;
33022;SDS011;19390;51.460;5.710;2023-10-13T04:37:35;29.50;;;18.67;;
33022;SDS011;19390;51.460;5.710;2023-10-13T04:40:17;28.15;;;17.20;;
33022;SDS011;19390;51.460;5.710;2023-10-13T04:42:44;34.38;;;17.48;;
33022;SDS011;19390;51.460;5.710;2023-10-13T04:45:16;30.90;;;17.65;;
33022;SDS011;19390;51.460;5.710;2023-10-13T04:47:55;32.55;;;18.67;;
33022;SDS011;19390;51.460;5.710;2023-10-13T04:50:40;31.88;;;18.38;;
33022;SDS011;19390;51.460;5.710;2023-10-13T04:53:15;35.53;;;18.92;;
33022;SDS011;19390;51.460;5.710;2023-10-13T04:55:55;31.48;;;18.58;;
33022;SDS011;19390;51.460;5.710;2023-10-13T04:58:26;31.30;;;19.73;;
33022;SDS011;19390;51.460;5.710;2023-10-13T05:03:46;34.15;;;20.40;;
33022;SDS011;19390;51.460;5.710;2023-10-13T05:06:33;30.85;;;17.45;;
33022;SDS011;19390;51.460;5.710;2023-10-13T05:09:13;29.45;;;17.75;;
33022;SDS011;19390;51.460;5.710;2023-10-13T05:11:58;28.17;;;18.58;;
33022;SDS011;19390;51.460;5.710;2023-10-13T05:14:45;28.08;;;16.30;;
33022;SDS011;19390;51.460;5.710;2023-10-13T05:17:30;31.33;;;16.17;;
33022;SDS011;19390;51.460;5.710;2023-10-13T05:20:14;22.92;;;15.85;;
33022;SDS011;19390;51.460;5.710;2023-10-13T05:22:58;23.80;;;15.88;;
33022;SDS011;19390;51.460;5.710;2023-10-13T05:25:42;25.38;;;14.63;;
33022;SDS011;19390;51.460;5.710;2023-10-13T05:28:26;19.42;;;13.90;;
33022;SDS011;19390;51.460;5.710;2023-10-13T05:31:10;24.83;;;14.50;;
33022;SDS011;19390;51.460;5.710;2023-10-13T05:33:54;23.80;;;13.80;;
33022;SDS011;19390;51.460;5.710;2023-10-13T05:36:38;22.77;;;13.73;;
33022;SDS011;19390;51.460;5.710;2023-10-13T05:39:23;16.40;;;12.32;;
33022;SDS011;19390;51.460;5.710;2023-10-13T05:42:07;20.20;;;12.02;;
33022;SDS011;19390;51.460;5.710;2023-10-13T05:44:51;18.65;;;10.77;;
33022;SDS011;19390;51.460;5.710;2023-10-13T05:47:36;19.17;;;12.02;;
33022;SDS011;19390;51.460;5.710;2023-10-13T05:50:07;17.13;;;11.45;;
33022;SDS011;19390;51.460;5.710;2023-10-13T05:52:48;17.52;;;12.30;;
33022;SDS011;19390;51.460;5.710;2023-10-13T05:55:27;19.67;;;12.05;;
33022;SDS011;19390;51.460;5.710;2023-10-13T05:58:12;19.58;;;11.35;;
33022;SDS011;19390;51.460;5.710;2023-10-13T06:00:57;18.90;;;12.60;;
33022;SDS011;19390;51.460;5.710;2023-10-13T06:03:41;23.63;;;13.05;;
33022;SDS011;19390;51.460;5.710;2023-10-13T06:06:26;19.27;;;11.55;;
33022;SDS011;19390;51.460;5.710;2023-10-13T06:09:10;22.95;;;14.38;;
33022;SDS011;19390;51.460;5.710;2023-10-13T06:11:54;22.58;;;12.27;;
33022;SDS011;19390;51.460;5.710;2023-10-13T06:14:39;23.20;;;12.38;;
33022;SDS011;19390;51.460;5.710;2023-10-13T06:17:23;24.75;;;11.07;;
33022;SDS011;19390;51.460;5.710;2023-10-13T06:20:08;23.00;;;10.98;;
33022;SDS011;19390;51.460;5.710;2023-10-13T06:22:52;22.63;;;11.73;;
33022;SDS011;19390;51.460;5.710;2023-10-13T06:25:37;20.60;;;11.00;;
33022;SDS011;19390;51.460;5.710;2023-10-13T06:28:21;20.15;;;9.50;;
33022;SDS011;19390;51.460;5.710;2023-10-13T06:31:06;15.77;;;9.25;;
33022;SDS011;19390;51.460;5.710;2023-10-13T06:33:32;18.40;;;9.63;;
33022;SDS011;19390;51.460;5.710;2023-10-13T06:36:07;21.60;;;9.48;;
33022;SDS011;19390;51.460;5.710;2023-10-13T06:38:35;17.50;;;9.13;;
33022;SDS011;19390;51.460;5.710;2023-10-13T06:41:02;17.38;;;9.73;;
33022;SDS011;19390;51.460;5.710;2023-10-13T06:43:34;15.98;;;8.60;;
33022;SDS011;19390;51.460;5.710;2023-10-13T06:46:05;19.27;;;8.65;;
33022;SDS011;19390;51.460;5.710;2023-10-13T06:48:32;24.58;;;9.35;;
33022;SDS011;19390;51.460;5.710;2023-10-13T06:50:59;15.85;;;8.52;;
33022;SDS011;19390;51.460;5.710;2023-10-13T06:53:30;24.55;;;9.32;;
33022;SDS011;19390;51.460;5.710;2023-10-13T06:58:34;18.05;;;8.38;;
33022;SDS011;19390;51.460;5.710;2023-10-13T07:00:59;21.33;;;9.45;;
33022;SDS011;19390;51.460;5.710;2023-10-13T07:03:26;21.67;;;8.48;;
33022;SDS011;19390;51.460;5.710;2023-10-13T07:05:52;17.42;;;8.85;;
33022;SDS011;19390;51.460;5.710;2023-10-13T07:08:18;23.05;;;10.48;;
33022;SDS011;19390;51.460;5.710;2023-10-13T07:13:30;23.02;;;9.25;;
33022;SDS011;19390;51.460;5.710;2023-10-13T07:16:04;26.92;;;10.18;;
33022;SDS011;19390;51.460;5.710;2023-10-13T07:21:10;22.52;;;9.65;;
33022;SDS011;19390;51.460;5.710;2023-10-13T07:23:36;17.98;;;8.02;;
33022;SDS011;19390;51.460;5.710;2023-10-13T07:26:03;24.50;;;8.93;;
33022;SDS011;19390;51.460;5.710;2023-10-13T07:28:31;18.83;;;8.13;;
33022;SDS011;19390;51.460;5.710;2023-10-13T07:31:01;23.60;;;8.80;;
33022;SDS011;19390;51.460;5.710;2023-10-13T07:33:29;16.50;;;7.88;;
33022;SDS011;19390;51.460;5.710;2023-10-13T07:36:02;18.08;;;7.60;;
33022;SDS011;19390;51.460;5.710;2023-10-13T07:38:42;19.52;;;8.30;;
33022;SDS011;19390;51.460;5.710;2023-10-13T07:41:13;22.23;;;8.40;;
33022;SDS011;19390;51.460;5.710;2023-10-13T07:43:41;23.25;;;7.72;;
33022;SDS011;19390;51.460;5.710;2023-10-13T07:46:08;19.10;;;8.20;;
33022;SDS011;19390;51.460;5.710;2023-10-13T07:48:38;18.65;;;8.68;;
33022;SDS011;19390;51.460;5.710;2023-10-13T07:51:10;18.45;;;7.95;;
33022;SDS011;19390;51.460;5.710;2023-10-13T07:53:40;20.83;;;7.80;;
33022;SDS011;19390;51.460;5.710;2023-10-13T07:56:08;18.13;;;7.40;;
33022;SDS011;19390;51.460;5.710;2023-10-13T07:58:36;18.60;;;7.28;;
33022;SDS011;19390;51.460;5.710;2023-10-13T08:01:18;20.05;;;7.65;;
33022;SDS011;19390;51.460;5.710;2023-10-13T08:03:45;15.80;;;6.72;;
33022;SDS011;19390;51.460;5.710;2023-10-13T08:06:17;14.60;;;6.38;;
33022;SDS011;19390;51.460;5.710;2023-10-13T08:08:43;19.85;;;6.43;;
33022;SDS011;19390;51.460;5.710;2023-10-13T08:11:13;16.75;;;6.68;;
33022;SDS011;19390;51.460;5.710;2023-10-13T08:13:52;19.13;;;6.00;;
33022;SDS011;19390;51.460;5.710;2023-10-13T08:16:39;15.68;;;6.30;;
33022;SDS011;19390;51.460;5.710;2023-10-13T08:19:19;16.83;;;6.10;;
33022;SDS011;19390;51.460;5.710;2023-10-13T08:22:11;17.17;;;6.45;;
33022;SDS011;19390;51.460;5.710;2023-10-13T08:24:46;18.27;;;6.53;;
33022;SDS011;19390;51.460;5.710;2023-10-13T08:27:14;15.35;;;6.38;;
33022;SDS011;19390;51.460;5.710;2023-10-13T08:30:07;17.02;;;5.78;;
33022;SDS011;19390;51.460;5.710;2023-10-13T08:32:51;20.00;;;6.85;;
33022;SDS011;19390;51.460;5.710;2023-10-13T08:35:20;14.13;;;7.05;;
33022;SDS011;19390;51.460;5.710;2023-10-13T08:38:09;16.13;;;6.20;;
33022;SDS011;19390;51.460;5.710;2023-10-13T08:40:43;14.43;;;6.15;;
33022;SDS011;19390;51.460;5.710;2023-10-13T08:43:28;12.48;;;5.55;;
33022;SDS011;19390;51.460;5.710;2023-10-13T08:46:08;15.10;;;6.20;;
33022;SDS011;19390;51.460;5.710;2023-10-13T08:48:34;13.35;;;6.00;;
33022;SDS011;19390;51.460;5.710;2023-10-13T08:51:01;14.15;;;6.55;;
33022;SDS011;19390;51.460;5.710;2023-10-13T08:53:50;20.42;;;6.20;;
33022;SDS011;19390;51.460;5.710;2023-10-13T08:56:23;14.15;;;6.43;;
33022;SDS011;19390;51.460;5.710;2023-10-13T08:58:59;21.80;;;7.13;;
33022;SDS011;19390;51.460;5.710;2023-10-13T09:01:34;17.35;;;6.15;;
33022;SDS011;19390;51.460;5.710;2023-10-13T09:04:04;12.05;;;6.30;;
33022;SDS011;19390;51.460;5.710;2023-10-13T09:09:29;15.75;;;5.43;;
33022;SDS011;19390;51.460;5.710;2023-10-13T09:12:16;16.15;;;6.53;;
33022;SDS011;19390;51.460;5.710;2023-10-13T09:14:52;12.82;;;5.95;;
33022;SDS011;19390;51.460;5.710;2023-10-13T09:17:29;15.68;;;5.93;;
33022;SDS011;19390;51.460;5.710;2023-10-13T09:19:59;19.27;;;6.03;;
33022;SDS011;19390;51.460;5.710;2023-10-13T09:22:44;17.50;;;6.72;;
33022;SDS011;19390;51.460;5.710;2023-10-13T09:25:21;22.35;;;6.63;;
33022;SDS011;19390;51.460;5.710;2023-10-13T09:27:48;17.67;;;6.00;;
33022;SDS011;19390;51.460;5.710;2023-10-13T09:30:18;20.23;;;6.35;;
33022;SDS011;19390;51.460;5.710;2023-10-13T09:32:46;13.45;;;6.10;;
33022;SDS011;19390;51.460;5.710;2023-10-13T09:35:17;13.10;;;6.50;;
33022;SDS011;19390;51.460;5.710;2023-10-13T09:37:44;14.98;;;7.18;;
33022;SDS011;19390;51.460;5.710;2023-10-13T09:40:12;16.63;;;6.57;;
33022;SDS011;19390;51.460;5.710;2023-10-13T09:43:03;18.90;;;6.07;;
33022;SDS011;19390;51.460;5.710;2023-10-13T09:45:40;12.68;;;6.25;;
33022;SDS011;19390;51.460;5.710;2023-10-13T09:48:39;13.10;;;6.70;;
33022;SDS011;19390;51.460;5.710;2023-10-13T09:58:34;13.75;;;6.03;;
33022;SDS011;19390;51.460;5.710;2023-10-13T10:01:02;14.15;;;6.13;;
33022;SDS011;19390;51.460;5.710;2023-10-13T10:10:25;11.48;;;5.93;;
33022;SDS011;19390;51.460;5.710;2023-10-13T10:13:17;14.35;;;6.65;;
33022;SDS011;19390;51.460;5.710;2023-10-13T10:15:55;26.65;;;7.13;;
33022;SDS011;19390;51.460;5.710;2023-10-13T10:18:25;14.77;;;6.25;;
33022;SDS011;19390;51.460;5.710;2023-10-13T10:20:51;15.95;;;6.18;;
33022;SDS011;19390;51.460;5.710;2023-10-13T10:23:26;17.45;;;6.30;;
33022;SDS011;19390;51.460;5.710;2023-10-13T10:26:11;20.70;;;6.57;;
33022;SDS011;19390;51.460;5.710;2023-10-13T10:28:45;23.33;;;6.63;;
33022;SDS011;19390;51.460;5.710;2023-10-13T10:31:11;13.30;;;7.10;;
33022;SDS011;19390;51.460;5.710;2023-10-13T10:33:38;19.83;;;6.43;;
33022;SDS011;19390;51.460;5.710;2023-10-13T10:36:04;25.60;;;6.63;;
33022;SDS011;19390;51.460;5.710;2023-10-13T10:38:31;16.80;;;6.38;;
33022;SDS011;19390;51.460;5.710;2023-10-13T10:41:04;14.38;;;6.68;;
33022;SDS011;19390;51.460;5.710;2023-10-13T10:46:12;17.98;;;6.55;;
33022;SDS011;19390;51.460;5.710;2023-10-13T10:48:43;22.42;;;6.85;;
33022;SDS011;19390;51.460;5.710;2023-10-13T10:51:13;18.98;;;6.82;;
33022;SDS011;19390;51.460;5.710;2023-10-13T10:53:46;17.27;;;7.20;;
33022;SDS011;19390;51.460;5.710;2023-10-13T10:56:14;17.92;;;6.93;;
33022;SDS011;19390;51.460;5.710;2023-10-13T10:58:57;12.40;;;6.45;;
33022;SDS011;19390;51.460;5.710;2023-10-13T11:01:25;21.30;;;6.80;;
33022;SDS011;19390;51.460;5.710;2023-10-13T11:06:34;12.52;;;6.38;;
33022;SDS011;19390;51.460;5.710;2023-10-13T11:09:07;16.73;;;6.90;;
33022;SDS011;19390;51.460;5.710;2023-10-13T11:11:52;17.23;;;7.10;;
33022;SDS011;19390;51.460;5.710;2023-10-13T11:16:54;19.52;;;7.10;;
33022;SDS011;19390;51.460;5.710;2023-10-13T11:19:34;13.85;;;6.28;;
33022;SDS011;19390;51.460;5.710;2023-10-13T11:22:13;19.52;;;6.30;;
33022;SDS011;19390;51.460;5.710;2023-10-13T11:28:20;17.52;;;5.28;;
33022;SDS011;19390;51.460;5.710;2023-10-13T11:30:52;21.92;;;5.82;;
33022;SDS011;19390;51.460;5.710;2023-10-13T11:33:23;16.52;;;5.88;;
33022;SDS011;19390;51.460;5.710;2023-10-13T11:35:52;20.83;;;6.35;;
33022;SDS011;19390;51.460;5.710;2023-10-13T11:38:26;20.88;;;6.55;;
33022;SDS011;19390;51.460;5.710;2023-10-13T11:40:54;19.63;;;6.38;;
33022;SDS011;19390;51.460;5.710;2023-10-13T11:43:35;16.05;;;6.00;;
33022;SDS011;19390;51.460;5.710;2023-10-13T11:46:39;18.88;;;6.00;;
33022;SDS011;19390;51.460;5.710;2023-10-13T11:49:52;17.73;;;6.35;;
33022;SDS011;19390;51.460;5.710;2023-10-13T11:52:24;19.88;;;6.68;;
33022;SDS011;19390;51.460;5.710;2023-10-13T11:54:53;17.20;;;5.90;;
33022;SDS011;19390;51.460;5.710;2023-10-13T11:57:20;18.40;;;5.95;;
33022;SDS011;19390;51.460;5.710;2023-10-13T11:59:46;14.77;;;5.80;;
33022;SDS011;19390;51.460;5.710;2023-10-13T12:02:19;20.95;;;6.63;;
33022;SDS011;19390;51.460;5.710;2023-10-13T12:04:50;20.17;;;6.05;;
33022;SDS011;19390;51.460;5.710;2023-10-13T12:07:20;17.27;;;7.20;;
33022;SDS011;19390;51.460;5.710;2023-10-13T12:10:05;17.15;;;7.03;;
33022;SDS011;19390;51.460;5.710;2023-10-13T12:12:40;14.20;;;6.50;;
33022;SDS011;19390;51.460;5.710;2023-10-13T12:15:08;18.75;;;6.60;;
33022;SDS011;19390;51.460;5.710;2023-10-13T12:17:35;14.77;;;5.88;;
33022;SDS011;19390;51.460;5.710;2023-10-13T12:44:27;20.33;;;6.67;;
33022;SDS011;19390;51.460;5.710;2023-10-13T12:47:11;17.98;;;6.30;;
33022;SDS011;19390;51.460;5.710;2023-10-13T12:49:55;17.17;;;5.82;;
33022;SDS011;19390;51.460;5.710;2023-10-13T12:52:24;23.65;;;6.20;;
33022;SDS011;19390;51.460;5.710;2023-10-13T12:54:51;22.25;;;6.20;;
33022;SDS011;19390;51.460;5.710;2023-10-13T12:57:20;25.77;;;6.57;;
33022;SDS011;19390;51.460;5.710;2023-10-13T12:59:48;17.45;;;5.88;;
33022;SDS011;19390;51.460;5.710;2023-10-13T13:02:23;21.48;;;6.15;;
33022;SDS011;19390;51.460;5.710;2023-10-13T13:04:53;17.83;;;6.10;;
33022;SDS011;19390;51.460;5.710;2023-10-13T13:07:22;20.48;;;6.47;;
33022;SDS011;19390;51.460;5.710;2023-10-13T13:09:54;22.63;;;6.45;;
33022;SDS011;19390;51.460;5.710;2023-10-13T13:12:23;17.88;;;6.35;;
33022;SDS011;19390;51.460;5.710;2023-10-13T13:14:50;20.98;;;6.35;;
33022;SDS011;19390;51.460;5.710;2023-10-13T13:17:20;23.85;;;6.70;;
33022;SDS011;19390;51.460;5.710;2023-10-13T13:19:46;23.90;;;5.43;;
33022;SDS011;19390;51.460;5.710;2023-10-13T13:22:12;14.02;;;4.50;;
33022;SDS011;19390;51.460;5.710;2023-10-13T13:24:38;25.83;;;6.10;;
33022;SDS011;19390;51.460;5.710;2023-10-13T13:27:12;24.70;;;5.45;;
33022;SDS011;19390;51.460;5.710;2023-10-13T13:29:42;21.55;;;5.70;;
33022;SDS011;19390;51.460;5.710;2023-10-13T13:32:09;22.60;;;5.70;;
33022;SDS011;19390;51.460;5.710;2023-10-13T13:34:50;20.75;;;5.55;;
33022;SDS011;19390;51.460;5.710;2023-10-13T13:37:29;21.63;;;6.35;;
33022;SDS011;19390;51.460;5.710;2023-10-13T13:39:55;15.93;;;5.88;;
33022;SDS011;19390;51.460;5.710;2023-10-13T13:42:27;21.27;;;5.40;;
33022;SDS011;19390;51.460;5.710;2023-10-13T13:44:54;18.23;;;5.72;;
33022;SDS011;19390;51.460;5.710;2023-10-13T13:47:24;22.98;;;6.00;;
33022;SDS011;19390;51.460;5.710;2023-10-13T13:49:50;20.75;;;5.90;;
33022;SDS011;19390;51.460;5.710;2023-10-13T13:52:20;16.98;;;5.50;;
33022;SDS011;19390;51.460;5.710;2023-10-13T13:54:58;15.35;;;5.30;;
33022;SDS011;19390;51.460;5.710;2023-10-13T13:57:27;17.52;;;5.78;;
33022;SDS011;19390;51.460;5.710;2023-10-13T13:59:55;20.48;;;5.57;;
33022;SDS011;19390;51.460;5.710;2023-10-13T14:02:22;14.00;;;6.07;;
33022;SDS011;19390;51.460;5.710;2023-10-13T14:04:48;18.80;;;5.75;;
33022;SDS011;19390;51.460;5.710;2023-10-13T14:07:20;17.52;;;5.40;;
33022;SDS011;19390;51.460;5.710;2023-10-13T14:09:49;13.73;;;5.65;;
33022;SDS011;19390;51.460;5.710;2023-10-13T14:12:18;15.95;;;5.80;;
33022;SDS011;19390;51.460;5.710;2023-10-13T14:15:06;14.45;;;5.32;;
33022;SDS011;19390;51.460;5.710;2023-10-13T14:17:49;24.23;;;6.35;;
33022;SDS011;19390;51.460;5.710;2023-10-13T14:20:15;32.08;;;5.70;;
33022;SDS011;19390;51.460;5.710;2023-10-13T14:22:43;15.30;;;5.13;;
33022;SDS011;19390;51.460;5.710;2023-10-13T14:25:12;21.73;;;5.47;;
33022;SDS011;19390;51.460;5.710;2023-10-13T14:27:39;16.15;;;5.07;;
33022;SDS011;19390;51.460;5.710;2023-10-13T14:30:08;24.45;;;5.70;;
33022;SDS011;19390;51.460;5.710;2023-10-13T14:32:34;18.02;;;6.72;;
33022;SDS011;19390;51.460;5.710;2023-10-13T14:35:05;16.13;;;5.35;;
33022;SDS011;19390;51.460;5.710;2023-10-13T14:37:39;16.25;;;5.53;;
33022;SDS011;19390;51.460;5.710;2023-10-13T14:40:05;22.13;;;5.68;;
33022;SDS011;19390;51.460;5.710;2023-10-13T14:42:37;14.13;;;5.30;;
33022;SDS011;19390;51.460;5.710;2023-10-13T14:45:05;13.30;;;6.03;;
33022;SDS011;19390;51.460;5.710;2023-10-13T14:47:38;16.25;;;5.30;;
33022;SDS011;19390;51.460;5.710;2023-10-13T14:50:07;19.40;;;5.70;;
33022;SDS011;19390;51.460;5.710;2023-10-13T14:52:42;12.40;;;5.03;;
33022;SDS011;19390;51.460;5.710;2023-10-13T14:55:08;12.35;;;5.38;;
33022;SDS011;19390;51.460;5.710;2023-10-13T14:57:43;14.50;;;5.05;;
33022;SDS011;19390;51.460;5.710;2023-10-13T15:00:10;15.73;;;5.63;;
33022;SDS011;19390;51.460;5.710;2023-10-13T15:02:39;12.90;;;4.35;;
33022;SDS011;19390;51.460;5.710;2023-10-13T15:05:08;12.35;;;5.47;;
33022;SDS011;19390;51.460;5.710;2023-10-13T15:07:42;16.92;;;5.40;;
33022;SDS011;19390;51.460;5.710;2023-10-13T15:10:14;11.93;;;5.05;;
33022;SDS011;19390;51.460;5.710;2023-10-13T15:12:41;18.27;;;5.80;;
33022;SDS011;19390;51.460;5.710;2023-10-13T15:15:14;14.43;;;5.07;;
33022;SDS011;19390;51.460;5.710;2023-10-13T15:17:44;15.75;;;5.28;;
33022;SDS011;19390;51.460;5.710;2023-10-13T15:20:10;16.05;;;5.75;;
33022;SDS011;19390;51.460;5.710;2023-10-13T15:22:41;13.90;;;4.60;;
33022;SDS011;19390;51.460;5.710;2023-10-13T15:25:07;15.80;;;5.93;;
33022;SDS011;19390;51.460;5.710;2023-10-13T15:27:34;11.18;;;5.13;;
33022;SDS011;19390;51.460;5.710;2023-10-13T15:30:06;11.83;;;4.43;;
33022;SDS011;19390;51.460;5.710;2023-10-13T15:32:45;10.50;;;5.07;;
33022;SDS011;19390;51.460;5.710;2023-10-13T15:35:11;19.73;;;5.78;;
33022;SDS011;19390;51.460;5.710;2023-10-13T15:37:37;17.48;;;4.78;;
33022;SDS011;19390;51.460;5.710;2023-10-13T15:40:03;20.35;;;5.80;;
33022;SDS011;19390;51.460;5.710;2023-10-13T15:42:29;18.05;;;5.68;;
33022;SDS011;19390;51.460;5.710;2023-10-13T15:44:55;23.08;;;5.50;;
33022;SDS011;19390;51.460;5.710;2023-10-13T15:47:21;15.07;;;5.20;;
33022;SDS011;19390;51.460;5.710;2023-10-13T15:49:47;10.80;;;5.43;;
33022;SDS011;19390;51.460;5.710;2023-10-13T15:52:12;19.25;;;6.10;;
33022;SDS011;19390;51.460;5.710;2023-10-13T15:54:40;17.95;;;5.55;;
33022;SDS011;19390;51.460;5.710;2023-10-13T15:57:07;19.38;;;6.45;;
33022;SDS011;19390;51.460;5.710;2023-10-13T15:59:41;19.20;;;6.20;;
33022;SDS011;19390;51.460;5.710;2023-10-13T16:02:10;20.67;;;6.20;;
33022;SDS011;19390;51.460;5.710;2023-10-13T16:04:37;12.07;;;5.68;;
33022;SDS011;19390;51.460;5.710;2023-10-13T16:07:02;17.58;;;5.53;;
33022;SDS011;19390;51.460;5.710;2023-10-13T16:09:28;11.05;;;5.75;;
33022;SDS011;19390;51.460;5.710;2023-10-13T16:11:58;22.45;;;6.43;;